< Cyclone 195819 1958 Season Cyclone 195821 >
Cyclone 195820 (unnamed)
General InformationTrack Information on Google Maps || ResourceGoogle EarthGE AnimationAtom FeedGeoJSON
Detalied Best Track (Time Zone = UTC)
Year Month Day Hour Lat. Long. Pressure (hPa) Wind (kt) Class Image Chart
1958 2 7 18 -7.9 93.4 -1 0 0 -- --
1958 2 8 00 -7.9 93.2 -1 0 0 -- --
1958 2 8 06 -7.9 92.8 -1 0 0 -- --
1958 2 8 12 -7.9 92.3 -1 0 0 -- --
1958 2 8 18 -8.0 91.8 -1 0 0 -- --
1958 2 9 00 -8.1 91.4 -1 0 0 -- --
1958 2 9 06 -8.3 91.0 -1 0 0 -- --
1958 2 9 12 -8.7 90.6 -1 0 0 -- --
1958 2 9 18 -9.1 90.1 -1 0 0 -- --
1958 2 10 00 -9.5 89.7 -1 0 0 -- --
1958 2 10 06 -10.1 89.2 -1 0 0 -- --
1958 2 10 12 -11.1 88.7 -1 0 0 -- --
1958 2 10 18 -12.4 88.2 -1 0 0 -- --
1958 2 11 00 -13.9 87.9 -1 0 0 -- --
1958 2 11 06 -15.2 88.0 -1 0 0 -- --
1958 2 11 12 -15.8 88.3 -1 0 0 -- --
1958 2 11 18 -16.1 88.7 -1 0 0 -- --
1958 2 12 00 -16.3 89.0 -1 0 0 -- --
1958 2 12 06 -16.5 89.5 -1 0 0 -- --
1958 2 12 12 -16.8 90.3 -1 0 0 -- --
1958 2 12 18 -17.1 91.2 -1 0 0 -- --
1958 2 13 00 -17.3 92.0 -1 0 0 -- --
1958 2 13 06 -17.3 92.9 -1 0 0 -- --
< Cyclone 195819 1958 Season Cyclone 195821 >

Help